EZY563P LEPA-EGKK
Flight info
| Callsign | EZY563P |
|---|---|
| Flight time | 1h 56m |
| Altitude | 38000 |
| Route | DRAGO DCT PAPOS DCT UMURE DCT XIKEN DCT KARES DCT ARBEK DCT REBUL DCT USKAR DCT MOPAS DCT GIROM DCT GONUP DCT MANAK DCT TIRAV DCT DIXAD DCT NTS DCT BAKUL DCT REN DCT UPALO DCT REVTU DCT ODREP UP88 VASUX |
| Aircraft | A20N/M-SDE2E3FGHIRWXY/LB1 |
Departure
| Time | 2026-05-04 13:37 |
|---|---|
| Airport | Palma de Mallorca Airport (LEPA) |
Arrival
| Time | 2026-05-04 15:34 |
|---|---|
| Airport | London Gatwick Airport (EGKK) |
| Time | Latitude | Longitude | Altitude | Speed | Heading |
|---|---|---|---|---|---|
| 2026-05-04 13:10 | 39.54995 | 2.73713 | 33 ft | 0 kts | 216° |
| 2026-05-04 13:17 | 39.55006 | 2.73730 | 33 ft | 0 kts | 239° |
| 2026-05-04 13:28 | 39.55009 | 2.73737 | 33 ft | 1 kts | 238° |
| 2026-05-04 13:28 | 39.55013 | 2.73745 | 33 ft | 1 kts | 232° |
| 2026-05-04 13:28 | 39.55021 | 2.73758 | 33 ft | 2 kts | 226° |
| 2026-05-04 13:29 | 39.55032 | 2.73772 | 32 ft | 2 kts | 220° |
| 2026-05-04 13:29 | 39.55044 | 2.73783 | 32 ft | 2 kts | 212° |
| 2026-05-04 13:29 | 39.55057 | 2.73793 | 30 ft | 2 kts | 206° |
| 2026-05-04 13:29 | 39.55070 | 2.73802 | 29 ft | 2 kts | 198° |
| 2026-05-04 13:30 | 39.55084 | 2.73806 | 31 ft | 2 kts | 183° |
| 2026-05-04 13:30 | 39.55099 | 2.73806 | 32 ft | 2 kts | 163° |
| 2026-05-04 13:30 | 39.55105 | 2.73804 | 29 ft | 0 kts | 149° |
| 2026-05-04 13:32 | 39.55094 | 2.73812 | 32 ft | 3 kts | 150° |
| 2026-05-04 13:32 | 39.55064 | 2.73832 | 32 ft | 6 kts | 152° |
| 2026-05-04 13:32 | 39.55018 | 2.73865 | 33 ft | 9 kts | 149° |
| 2026-05-04 13:33 | 39.54960 | 2.73915 | 33 ft | 11 kts | 134° |
| 2026-05-04 13:33 | 39.54966 | 2.74000 | 32 ft | 11 kts | 22° |
| 2026-05-04 13:33 | 39.55042 | 2.73957 | 31 ft | 13 kts | 330° |
| 2026-05-04 13:33 | 39.55129 | 2.73891 | 33 ft | 16 kts | 329° |
| 2026-05-04 13:34 | 39.55227 | 2.73809 | 33 ft | 18 kts | 326° |
| 2026-05-04 13:34 | 39.55337 | 2.73722 | 33 ft | 19 kts | 337° |
| 2026-05-04 13:34 | 39.55453 | 2.73625 | 34 ft | 21 kts | 328° |
| 2026-05-04 13:34 | 39.55583 | 2.73525 | 34 ft | 23 kts | 331° |
| 2026-05-04 13:35 | 39.55685 | 2.73586 | 34 ft | 17 kts | 63° |
| 2026-05-04 13:35 | 39.55813 | 2.73832 | 36 ft | 18 kts | 55° |
| 2026-05-04 13:35 | 39.55894 | 2.73905 | 36 ft | 14 kts | 343° |
| 2026-05-04 13:36 | 39.55983 | 2.73829 | 34 ft | 17 kts | 316° |
| 2026-05-04 13:36 | 39.55975 | 2.73717 | 34 ft | 10 kts | 232° |
| 2026-05-04 13:36 | 39.55973 | 2.73713 | 34 ft | 0 kts | 232° |
| 2026-05-04 13:36 | 39.55972 | 2.73712 | 34 ft | 1 kts | 232° |
| 2026-05-04 13:37 | 39.55856 | 2.73475 | 32 ft | 71 kts | 238° |
| 2026-05-04 13:37 | 39.55467 | 2.72677 | 29 ft | 135 kts | 238° |
| 2026-05-04 13:37 | 39.54902 | 2.71476 | 325 ft | 163 kts | 236° |
| 2026-05-04 13:37 | 39.54302 | 2.70197 | 1022 ft | 174 kts | 237° |
| 2026-05-04 13:38 | 39.53630 | 2.68833 | 1808 ft | 181 kts | 241° |
| 2026-05-04 13:38 | 39.53096 | 2.67349 | 2666 ft | 181 kts | 249° |
| 2026-05-04 13:38 | 39.52635 | 2.65820 | 3427 ft | 186 kts | 238° |
| 2026-05-04 13:38 | 39.51782 | 2.64447 | 3907 ft | 203 kts | 226° |
| 2026-05-04 13:39 | 39.50805 | 2.63089 | 4675 ft | 206 kts | 228° |
| 2026-05-04 13:39 | 39.49878 | 2.61654 | 5045 ft | 209 kts | 231° |
| 2026-05-04 13:39 | 39.49028 | 2.60140 | 5159 ft | 209 kts | 234° |
| 2026-05-04 13:39 | 39.48225 | 2.58569 | 5268 ft | 208 kts | 236° |
| 2026-05-04 13:40 | 39.47453 | 2.56991 | 5376 ft | 209 kts | 237° |
| 2026-05-04 13:40 | 39.46683 | 2.55389 | 5487 ft | 210 kts | 237° |
| 2026-05-04 13:40 | 39.45914 | 2.53787 | 5619 ft | 210 kts | 237° |
| 2026-05-04 13:40 | 39.45159 | 2.52148 | 5994 ft | 215 kts | 246° |
| 2026-05-04 13:41 | 39.44997 | 2.50228 | 6803 ft | 221 kts | 278° |
| 2026-05-04 13:41 | 39.45702 | 2.48442 | 7634 ft | 232 kts | 308° |
| 2026-05-04 13:41 | 39.46965 | 2.47021 | 8259 ft | 252 kts | 318° |
| 2026-05-04 13:42 | 39.50096 | 2.44196 | 9316 ft | 291 kts | 320° |
| 2026-05-04 13:42 | 39.51768 | 2.42662 | 9471 ft | 293 kts | 319° |
| 2026-05-04 13:42 | 39.53407 | 2.41109 | 9582 ft | 292 kts | 319° |
| 2026-05-04 13:42 | 39.55008 | 2.39497 | 9692 ft | 291 kts | 313° |
| 2026-05-04 13:43 | 39.56416 | 2.37634 | 9814 ft | 290 kts | 308° |
| 2026-05-04 13:43 | 39.57802 | 2.35726 | 9917 ft | 290 kts | 308° |
| 2026-05-04 13:43 | 39.59192 | 2.33826 | 9963 ft | 291 kts | 308° |
| 2026-05-04 13:43 | 39.60585 | 2.31923 | 9964 ft | 291 kts | 308° |
| 2026-05-04 13:44 | 39.62013 | 2.29962 | 9969 ft | 319 kts | 308° |
| 2026-05-04 13:44 | 39.63594 | 2.27787 | 10281 ft | 338 kts | 309° |
| 2026-05-04 13:44 | 39.65212 | 2.25581 | 11182 ft | 337 kts | 309° |
| 2026-05-04 13:44 | 39.66837 | 2.23368 | 12004 ft | 341 kts | 309° |
| 2026-05-04 13:45 | 39.68479 | 2.21128 | 12812 ft | 344 kts | 309° |
| 2026-05-04 13:45 | 39.70125 | 2.18875 | 13625 ft | 346 kts | 309° |
| 2026-05-04 13:45 | 39.71818 | 2.16557 | 14364 ft | 349 kts | 309° |
| 2026-05-04 13:45 | 39.73494 | 2.14259 | 15082 ft | 352 kts | 309° |
| 2026-05-04 13:46 | 39.75178 | 2.11949 | 15779 ft | 354 kts | 308° |
| 2026-05-04 13:46 | 39.76881 | 2.09609 | 16492 ft | 357 kts | 308° |
| 2026-05-04 13:46 | 39.78591 | 2.07258 | 17178 ft | 360 kts | 308° |
| 2026-05-04 13:46 | 39.80299 | 2.04906 | 17816 ft | 364 kts | 308° |
| 2026-05-04 13:47 | 39.82043 | 2.02503 | 18464 ft | 367 kts | 308° |
| 2026-05-04 13:47 | 39.83804 | 2.00079 | 19049 ft | 370 kts | 308° |
| 2026-05-04 13:47 | 39.85576 | 1.97635 | 19618 ft | 373 kts | 307° |
| 2026-05-04 13:47 | 39.87361 | 1.95173 | 20195 ft | 376 kts | 307° |
| 2026-05-04 13:48 | 39.89160 | 1.92688 | 20759 ft | 379 kts | 307° |
| 2026-05-04 13:48 | 39.90972 | 1.90184 | 21334 ft | 382 kts | 307° |
| 2026-05-04 13:48 | 39.92804 | 1.87651 | 21864 ft | 386 kts | 306° |
| 2026-05-04 13:48 | 39.94648 | 1.85099 | 22421 ft | 388 kts | 306° |
| 2026-05-04 13:49 | 39.96507 | 1.82523 | 22964 ft | 392 kts | 306° |
| 2026-05-04 13:49 | 39.98385 | 1.79930 | 23487 ft | 396 kts | 307° |
| 2026-05-04 13:49 | 40.00499 | 1.77546 | 23919 ft | 408 kts | 316° |
| 2026-05-04 13:49 | 40.02942 | 1.75578 | 24358 ft | 420 kts | 326° |
| 2026-05-04 13:50 | 40.05674 | 1.74062 | 24767 ft | 429 kts | 332° |
| 2026-05-04 13:50 | 40.08467 | 1.72651 | 25177 ft | 432 kts | 331° |
| 2026-05-04 13:50 | 40.11277 | 1.71215 | 25591 ft | 435 kts | 331° |
| 2026-05-04 13:50 | 40.14106 | 1.69763 | 25992 ft | 438 kts | 331° |
| 2026-05-04 13:51 | 40.16953 | 1.68299 | 26387 ft | 441 kts | 331° |
| 2026-05-04 13:51 | 40.19814 | 1.66827 | 26775 ft | 444 kts | 331° |
| 2026-05-04 13:51 | 40.22702 | 1.65341 | 27150 ft | 447 kts | 331° |
| 2026-05-04 13:51 | 40.25600 | 1.63847 | 27497 ft | 451 kts | 331° |
| 2026-05-04 13:52 | 40.31486 | 1.60812 | 28177 ft | 457 kts | 331° |
| 2026-05-04 13:52 | 40.34455 | 1.59279 | 28519 ft | 459 kts | 331° |
| 2026-05-04 13:52 | 40.37438 | 1.57737 | 28847 ft | 462 kts | 331° |
| 2026-05-04 13:53 | 40.40439 | 1.56184 | 29168 ft | 465 kts | 331° |
| 2026-05-04 13:53 | 40.43453 | 1.54622 | 29483 ft | 467 kts | 331° |
| 2026-05-04 13:53 | 40.46487 | 1.53049 | 29802 ft | 470 kts | 331° |
| 2026-05-04 13:54 | 40.52612 | 1.49868 | 30377 ft | 475 kts | 330° |
| 2026-05-04 13:54 | 40.55692 | 1.48267 | 30661 ft | 477 kts | 330° |
| 2026-05-04 13:54 | 40.61887 | 1.45041 | 31260 ft | 480 kts | 330° |
| 2026-05-04 13:55 | 40.64992 | 1.43424 | 31631 ft | 479 kts | 330° |
| 2026-05-04 13:55 | 40.71177 | 1.40195 | 32355 ft | 478 kts | 330° |
| 2026-05-04 13:55 | 40.74271 | 1.38576 | 32702 ft | 478 kts | 330° |
| 2026-05-04 13:56 | 40.77362 | 1.36957 | 33043 ft | 477 kts | 330° |
| 2026-05-04 13:56 | 40.80421 | 1.35352 | 33363 ft | 477 kts | 330° |
| 2026-05-04 13:56 | 40.86580 | 1.32118 | 33985 ft | 476 kts | 330° |
| 2026-05-04 13:57 | 40.89651 | 1.30503 | 34265 ft | 475 kts | 330° |
| 2026-05-04 13:57 | 40.92702 | 1.28896 | 34582 ft | 474 kts | 330° |
| 2026-05-04 13:58 | 41.01867 | 1.24061 | 35379 ft | 471 kts | 330° |
| 2026-05-04 13:58 | 41.07943 | 1.20848 | 35854 ft | 469 kts | 330° |
| 2026-05-04 13:58 | 41.10971 | 1.19245 | 35932 ft | 468 kts | 330° |
| 2026-05-04 13:59 | 41.17334 | 1.16943 | 35938 ft | 483 kts | 345° |
| 2026-05-04 14:00 | 41.27405 | 1.15834 | 35937 ft | 487 kts | 348° |
| 2026-05-04 14:00 | 41.37526 | 1.14756 | 35928 ft | 487 kts | 349° |
| 2026-05-04 14:01 | 41.44287 | 1.14044 | 35917 ft | 487 kts | 349° |
| 2026-05-04 14:02 | 41.54414 | 1.12979 | 35907 ft | 487 kts | 349° |
| 2026-05-04 14:02 | 41.61173 | 1.12264 | 35901 ft | 488 kts | 349° |
| 2026-05-04 14:03 | 41.67912 | 1.11550 | 35911 ft | 487 kts | 349° |
| 2026-05-04 14:03 | 41.74697 | 1.10830 | 35926 ft | 487 kts | 349° |
| 2026-05-04 14:04 | 41.84863 | 1.09747 | 35943 ft | 489 kts | 349° |
| 2026-05-04 14:04 | 41.91642 | 1.09024 | 35952 ft | 489 kts | 349° |
| 2026-05-04 14:05 | 42.01729 | 1.07945 | 35954 ft | 489 kts | 349° |
| 2026-05-04 14:06 | 42.08516 | 1.07216 | 35943 ft | 489 kts | 349° |
| 2026-05-04 14:06 | 42.15302 | 1.06486 | 35934 ft | 489 kts | 349° |
| 2026-05-04 14:07 | 42.22084 | 1.05756 | 35913 ft | 488 kts | 349° |
| 2026-05-04 14:07 | 42.28815 | 1.05029 | 35920 ft | 489 kts | 349° |
| 2026-05-04 14:08 | 42.35589 | 1.04297 | 35921 ft | 488 kts | 349° |
| 2026-05-04 14:08 | 42.42362 | 1.03563 | 35920 ft | 488 kts | 349° |
| 2026-05-04 14:09 | 42.52521 | 1.02461 | 35909 ft | 489 kts | 349° |
| 2026-05-04 14:10 | 42.62674 | 1.01353 | 35917 ft | 488 kts | 349° |
| 2026-05-04 14:10 | 42.69432 | 1.00612 | 35907 ft | 487 kts | 349° |
| 2026-05-04 14:11 | 42.76193 | 0.99854 | 35902 ft | 485 kts | 347° |
| 2026-05-04 14:11 | 42.85938 | 0.96812 | 35903 ft | 479 kts | 339° |
| 2026-05-04 14:12 | 42.91315 | 0.94962 | 35910 ft | 481 kts | 339° |
| 2026-05-04 14:13 | 43.01020 | 0.91610 | 35914 ft | 479 kts | 339° |
| 2026-05-04 14:13 | 43.07487 | 0.89369 | 35909 ft | 480 kts | 340° |
| 2026-05-04 14:14 | 43.13958 | 0.87123 | 35919 ft | 480 kts | 340° |
| 2026-05-04 14:14 | 43.23661 | 0.83743 | 35933 ft | 481 kts | 340° |
| 2026-05-04 14:15 | 43.36615 | 0.79214 | 35925 ft | 482 kts | 340° |
| 2026-05-04 14:16 | 43.46338 | 0.75660 | 35944 ft | 479 kts | 334° |
| 2026-05-04 14:17 | 43.55498 | 0.70335 | 35930 ft | 476 kts | 331° |
| 2026-05-04 14:18 | 43.64644 | 0.64962 | 35932 ft | 476 kts | 331° |
| 2026-05-04 14:19 | 43.76810 | 0.57764 | 35932 ft | 476 kts | 331° |
| 2026-05-04 14:19 | 43.82897 | 0.54149 | 35934 ft | 476 kts | 331° |
| 2026-05-04 14:20 | 43.88985 | 0.50524 | 35933 ft | 477 kts | 331° |
| 2026-05-04 14:20 | 43.95081 | 0.46888 | 35935 ft | 476 kts | 331° |
| 2026-05-04 14:21 | 44.04211 | 0.41426 | 35944 ft | 477 kts | 331° |
| 2026-05-04 14:21 | 44.10260 | 0.37796 | 35966 ft | 477 kts | 332° |
| 2026-05-04 14:22 | 44.16224 | 0.34210 | 35935 ft | 477 kts | 332° |
| 2026-05-04 14:22 | 44.22312 | 0.30543 | 35932 ft | 477 kts | 332° |
| 2026-05-04 14:23 | 44.31426 | 0.25036 | 35932 ft | 476 kts | 332° |
| 2026-05-04 14:24 | 44.37507 | 0.21350 | 35926 ft | 476 kts | 332° |
| 2026-05-04 14:24 | 44.43580 | 0.17662 | 35916 ft | 476 kts | 332° |
| 2026-05-04 14:25 | 44.49643 | 0.13971 | 35915 ft | 475 kts | 332° |
| 2026-05-04 14:25 | 44.58736 | 0.08419 | 35911 ft | 475 kts | 332° |
| 2026-05-04 14:26 | 44.64795 | 0.04710 | 35913 ft | 475 kts | 332° |
| 2026-05-04 14:26 | 44.70810 | 0.01019 | 35911 ft | 475 kts | 332° |
| 2026-05-04 14:27 | 44.76822 | -0.02680 | 35915 ft | 475 kts | 332° |
| 2026-05-04 14:27 | 44.82731 | -0.06322 | 35912 ft | 475 kts | 332° |
| 2026-05-04 14:28 | 44.88785 | -0.10062 | 35913 ft | 475 kts | 332° |
| 2026-05-04 14:28 | 44.94832 | -0.13806 | 35911 ft | 475 kts | 332° |
| 2026-05-04 14:29 | 45.06895 | -0.21303 | 35914 ft | 475 kts | 332° |
| 2026-05-04 14:30 | 45.12948 | -0.25077 | 35913 ft | 476 kts | 332° |
| 2026-05-04 14:31 | 45.22027 | -0.30755 | 35911 ft | 475 kts | 332° |
| 2026-05-04 14:32 | 45.34109 | -0.38341 | 35921 ft | 475 kts | 332° |
| 2026-05-04 14:32 | 45.40147 | -0.42146 | 35930 ft | 475 kts | 332° |
| 2026-05-04 14:33 | 45.46186 | -0.45959 | 35935 ft | 475 kts | 332° |
| 2026-05-04 14:33 | 45.52226 | -0.49783 | 35936 ft | 475 kts | 332° |
| 2026-05-04 14:34 | 45.58264 | -0.53614 | 35938 ft | 475 kts | 332° |
| 2026-05-04 14:34 | 45.64305 | -0.57457 | 35933 ft | 476 kts | 332° |
| 2026-05-04 14:35 | 45.70355 | -0.61314 | 35927 ft | 476 kts | 332° |
| 2026-05-04 14:35 | 45.76405 | -0.65181 | 35937 ft | 476 kts | 332° |
| 2026-05-04 14:36 | 45.82452 | -0.69055 | 35939 ft | 476 kts | 332° |
| 2026-05-04 14:36 | 45.88494 | -0.72935 | 35937 ft | 476 kts | 332° |
| 2026-05-04 14:37 | 45.94498 | -0.76800 | 35924 ft | 476 kts | 332° |
| 2026-05-04 14:37 | 46.00549 | -0.80707 | 35939 ft | 476 kts | 333° |
| 2026-05-04 14:38 | 46.06588 | -0.84612 | 35940 ft | 476 kts | 333° |
| 2026-05-04 14:38 | 46.12631 | -0.88529 | 35939 ft | 476 kts | 333° |
| 2026-05-04 14:39 | 46.18660 | -0.92459 | 35936 ft | 474 kts | 330° |
| 2026-05-04 14:39 | 46.24192 | -0.97494 | 35960 ft | 468 kts | 317° |
| 2026-05-04 14:40 | 46.31816 | -1.06331 | 35959 ft | 469 kts | 318° |
| 2026-05-04 14:40 | 46.36907 | -1.12219 | 35962 ft | 468 kts | 318° |
| 2026-05-04 14:41 | 46.41980 | -1.18118 | 35955 ft | 468 kts | 317° |
| 2026-05-04 14:42 | 46.52104 | -1.29944 | 35964 ft | 467 kts | 318° |
| 2026-05-04 14:42 | 46.57160 | -1.35870 | 35967 ft | 467 kts | 318° |
| 2026-05-04 14:43 | 46.62622 | -1.41018 | 35966 ft | 471 kts | 332° |
| 2026-05-04 14:43 | 46.68532 | -1.45173 | 35967 ft | 472 kts | 332° |
| 2026-05-04 14:44 | 46.74433 | -1.49374 | 35968 ft | 472 kts | 332° |
| 2026-05-04 14:44 | 46.80327 | -1.53572 | 35960 ft | 471 kts | 332° |
| 2026-05-04 14:45 | 46.86348 | -1.57351 | 35959 ft | 474 kts | 342° |
| 2026-05-04 14:45 | 46.92860 | -1.58913 | 35956 ft | 476 kts | 355° |
| 2026-05-04 14:46 | 46.99475 | -1.59582 | 35953 ft | 476 kts | 355° |
| 2026-05-04 14:46 | 47.06015 | -1.60265 | 35947 ft | 476 kts | 355° |
| 2026-05-04 14:47 | 47.12627 | -1.60945 | 35967 ft | 476 kts | 355° |
| 2026-05-04 14:47 | 47.19237 | -1.61663 | 35967 ft | 477 kts | 354° |
| 2026-05-04 14:48 | 47.25840 | -1.62579 | 35965 ft | 477 kts | 354° |
| 2026-05-04 14:48 | 47.32446 | -1.63498 | 35959 ft | 477 kts | 354° |
| 2026-05-04 14:49 | 47.39056 | -1.64413 | 35957 ft | 477 kts | 354° |
| 2026-05-04 14:49 | 47.45669 | -1.65359 | 35949 ft | 478 kts | 354° |
| 2026-05-04 14:50 | 47.52285 | -1.66304 | 35941 ft | 477 kts | 354° |
| 2026-05-04 14:50 | 47.58897 | -1.67248 | 35943 ft | 477 kts | 354° |
| 2026-05-04 14:51 | 47.65505 | -1.68194 | 35946 ft | 477 kts | 354° |
| 2026-05-04 14:51 | 47.72080 | -1.69137 | 35940 ft | 476 kts | 354° |
| 2026-05-04 14:52 | 47.78670 | -1.70083 | 35942 ft | 476 kts | 354° |
| 2026-05-04 14:52 | 47.85266 | -1.71032 | 35956 ft | 476 kts | 354° |
| 2026-05-04 14:53 | 47.91853 | -1.71984 | 35962 ft | 476 kts | 354° |
| 2026-05-04 14:53 | 47.98446 | -1.72939 | 35966 ft | 476 kts | 354° |
| 2026-05-04 14:54 | 48.05042 | -1.73896 | 35965 ft | 476 kts | 354° |
| 2026-05-04 14:54 | 48.11657 | -1.74216 | 35968 ft | 476 kts | 359° |
| 2026-05-04 14:55 | 48.18290 | -1.74298 | 35965 ft | 477 kts | 359° |
| 2026-05-04 14:55 | 48.24916 | -1.74384 | 35963 ft | 475 kts | 359° |
| 2026-05-04 14:56 | 48.31484 | -1.74465 | 35960 ft | 475 kts | 359° |
| 2026-05-04 14:56 | 48.38101 | -1.74545 | 35959 ft | 476 kts | 359° |
| 2026-05-04 14:57 | 48.44710 | -1.74626 | 35961 ft | 474 kts | 359° |
| 2026-05-04 14:57 | 48.51294 | -1.74706 | 35965 ft | 473 kts | 359° |
| 2026-05-04 14:58 | 48.57877 | -1.74786 | 35966 ft | 474 kts | 359° |
| 2026-05-04 14:58 | 48.63355 | -1.74853 | 35966 ft | 473 kts | 359° |
| 2026-05-04 14:59 | 48.71029 | -1.74947 | 35966 ft | 472 kts | 359° |
| 2026-05-04 15:00 | 48.80887 | -1.75068 | 35970 ft | 473 kts | 359° |
| 2026-05-04 15:00 | 48.86227 | -1.75134 | 35975 ft | 473 kts | 359° |
| 2026-05-04 15:01 | 48.96103 | -1.75097 | 35969 ft | 474 kts | 1° |
| 2026-05-04 15:01 | 49.02686 | -1.74783 | 35968 ft | 473 kts | 1° |
| 2026-05-04 15:02 | 49.09264 | -1.74502 | 35971 ft | 472 kts | 1° |
| 2026-05-04 15:02 | 49.15824 | -1.74247 | 35971 ft | 472 kts | 1° |
| 2026-05-04 15:03 | 49.22387 | -1.73996 | 35977 ft | 472 kts | 1° |
| 2026-05-04 15:03 | 49.28950 | -1.73744 | 35982 ft | 472 kts | 1° |
| 2026-05-04 15:04 | 49.35509 | -1.73492 | 35987 ft | 471 kts | 1° |
| 2026-05-04 15:04 | 49.42031 | -1.73240 | 35990 ft | 472 kts | 1° |
| 2026-05-04 15:05 | 49.48609 | -1.72985 | 35991 ft | 471 kts | 1° |
| 2026-05-04 15:05 | 49.55163 | -1.72731 | 35993 ft | 471 kts | 1° |
| 2026-05-04 15:06 | 49.61627 | -1.71331 | 35993 ft | 471 kts | 15° |
| 2026-05-04 15:07 | 49.70903 | -1.66363 | 35991 ft | 470 kts | 20° |
| 2026-05-04 15:07 | 49.77043 | -1.62993 | 35995 ft | 469 kts | 20° |
| 2026-05-04 15:08 | 49.83186 | -1.59590 | 35993 ft | 469 kts | 20° |
| 2026-05-04 15:08 | 49.89293 | -1.56193 | 35994 ft | 469 kts | 20° |
| 2026-05-04 15:09 | 49.95434 | -1.52766 | 35995 ft | 469 kts | 20° |
| 2026-05-04 15:09 | 50.01581 | -1.49348 | 35993 ft | 469 kts | 19° |
| 2026-05-04 15:10 | 50.10935 | -1.44835 | 35988 ft | 469 kts | 17° |
| 2026-05-04 15:10 | 50.17141 | -1.41843 | 35641 ft | 464 kts | 18° |
| 2026-05-04 15:11 | 50.20212 | -1.40343 | 35197 ft | 461 kts | 18° |
| 2026-05-04 15:11 | 50.23255 | -1.38851 | 34730 ft | 457 kts | 18° |
| 2026-05-04 15:11 | 50.26281 | -1.37366 | 34209 ft | 454 kts | 19° |
| 2026-05-04 15:11 | 50.29293 | -1.35882 | 33640 ft | 451 kts | 19° |
| 2026-05-04 15:12 | 50.32276 | -1.34408 | 33033 ft | 449 kts | 19° |
| 2026-05-04 15:12 | 50.35248 | -1.32936 | 32431 ft | 447 kts | 19° |
| 2026-05-04 15:12 | 50.38206 | -1.31471 | 31847 ft | 445 kts | 18° |
| 2026-05-04 15:12 | 50.41149 | -1.30010 | 31274 ft | 443 kts | 18° |
| 2026-05-04 15:13 | 50.44094 | -1.28547 | 30656 ft | 443 kts | 18° |
| 2026-05-04 15:13 | 50.47026 | -1.27081 | 30103 ft | 442 kts | 20° |
| 2026-05-04 15:13 | 50.49830 | -1.25173 | 29534 ft | 437 kts | 30° |
| 2026-05-04 15:13 | 50.52365 | -1.22646 | 29045 ft | 429 kts | 39° |
| 2026-05-04 15:14 | 50.54660 | -1.19674 | 28528 ft | 424 kts | 43° |
| 2026-05-04 15:14 | 50.56912 | -1.16709 | 28024 ft | 421 kts | 42° |
| 2026-05-04 15:14 | 50.59144 | -1.13784 | 27529 ft | 417 kts | 42° |
| 2026-05-04 15:14 | 50.61366 | -1.10867 | 27139 ft | 410 kts | 42° |
| 2026-05-04 15:15 | 50.63520 | -1.08034 | 27010 ft | 398 kts | 42° |
| 2026-05-04 15:15 | 50.65579 | -1.05231 | 26880 ft | 383 kts | 47° |
| 2026-05-04 15:15 | 50.67318 | -1.02167 | 26756 ft | 369 kts | 54° |
| 2026-05-04 15:16 | 50.70569 | -0.96265 | 26314 ft | 353 kts | 38° |
| 2026-05-04 15:16 | 50.72630 | -0.94179 | 25906 ft | 351 kts | 30° |
| 2026-05-04 15:16 | 50.76688 | -0.90033 | 25133 ft | 344 kts | 47° |
| 2026-05-04 15:17 | 50.78062 | -0.87007 | 24715 ft | 336 kts | 69° |
| 2026-05-04 15:17 | 50.79887 | -0.80119 | 23477 ft | 349 kts | 70° |
| 2026-05-04 15:17 | 50.80810 | -0.76515 | 22642 ft | 357 kts | 73° |
| 2026-05-04 15:18 | 50.81439 | -0.72759 | 21852 ft | 362 kts | 83° |
| 2026-05-04 15:18 | 50.81887 | -0.68766 | 21050 ft | 368 kts | 82° |
| 2026-05-04 15:18 | 50.82350 | -0.64745 | 20295 ft | 374 kts | 82° |
| 2026-05-04 15:19 | 50.83305 | -0.56555 | 18823 ft | 382 kts | 82° |
| 2026-05-04 15:19 | 50.83785 | -0.52417 | 18090 ft | 385 kts | 81° |
| 2026-05-04 15:19 | 50.84745 | -0.44099 | 16508 ft | 388 kts | 81° |
| 2026-05-04 15:20 | 50.85225 | -0.39906 | 15732 ft | 389 kts | 81° |
| 2026-05-04 15:20 | 50.85706 | -0.35696 | 14996 ft | 389 kts | 81° |
| 2026-05-04 15:20 | 50.86192 | -0.31425 | 14253 ft | 388 kts | 81° |
| 2026-05-04 15:20 | 50.86669 | -0.27222 | 13490 ft | 388 kts | 81° |
| 2026-05-04 15:21 | 50.87139 | -0.23061 | 12522 ft | 392 kts | 81° |
| 2026-05-04 15:21 | 50.87618 | -0.18799 | 11695 ft | 393 kts | 81° |
| 2026-05-04 15:21 | 50.88566 | -0.10340 | 10232 ft | 388 kts | 81° |
| 2026-05-04 15:22 | 50.89142 | -0.06208 | 9490 ft | 385 kts | 71° |
| 2026-05-04 15:22 | 50.90397 | -0.02605 | 9127 ft | 363 kts | 51° |
| 2026-05-04 15:22 | 50.94368 | 0.01107 | 8647 ft | 317 kts | 6° |
| 2026-05-04 15:23 | 50.96468 | 0.00856 | 8463 ft | 295 kts | 341° |
| 2026-05-04 15:23 | 50.98172 | -0.00678 | 8296 ft | 274 kts | 315° |
| 2026-05-04 15:23 | 50.99171 | -0.03093 | 8124 ft | 254 kts | 286° |
| 2026-05-04 15:23 | 50.99288 | -0.05739 | 7950 ft | 234 kts | 256° |
| 2026-05-04 15:24 | 50.98159 | -0.10337 | 7294 ft | 218 kts | 255° |
| 2026-05-04 15:24 | 50.97966 | -0.15096 | 6415 ft | 218 kts | 277° |
| 2026-05-04 15:25 | 50.98213 | -0.17450 | 5994 ft | 216 kts | 282° |
| 2026-05-04 15:25 | 50.98553 | -0.19767 | 5550 ft | 215 kts | 286° |
| 2026-05-04 15:25 | 50.98946 | -0.22054 | 5108 ft | 215 kts | 285° |
| 2026-05-04 15:26 | 50.99692 | -0.26624 | 4274 ft | 213 kts | 285° |
| 2026-05-04 15:26 | 51.00057 | -0.28895 | 3860 ft | 212 kts | 285° |
| 2026-05-04 15:26 | 51.00780 | -0.33418 | 3161 ft | 205 kts | 285° |
| 2026-05-04 15:27 | 51.01136 | -0.35664 | 3074 ft | 214 kts | 285° |
| 2026-05-04 15:27 | 51.01835 | -0.40022 | 2993 ft | 211 kts | 285° |
| 2026-05-04 15:28 | 51.02556 | -0.44544 | 2991 ft | 211 kts | 285° |
| 2026-05-04 15:28 | 51.02917 | -0.46806 | 2991 ft | 211 kts | 284° |
| 2026-05-04 15:28 | 51.03704 | -0.51295 | 2979 ft | 210 kts | 301° |
| 2026-05-04 15:29 | 51.04706 | -0.52874 | 2991 ft | 209 kts | 335° |
| 2026-05-04 15:30 | 51.08773 | -0.48146 | 2988 ft | 206 kts | 60° |
| 2026-05-04 15:30 | 51.11255 | -0.42638 | 2366 ft | 206 kts | 63° |
| 2026-05-04 15:31 | 51.12068 | -0.38301 | 2581 ft | 207 kts | 77° |
| 2026-05-04 15:31 | 51.12396 | -0.36041 | 2238 ft | 211 kts | 77° |
| 2026-05-04 15:32 | 51.13340 | -0.29468 | 1369 ft | 186 kts | 77° |
| 2026-05-04 15:32 | 51.13902 | -0.25590 | 917 ft | 174 kts | 78° |
| 2026-05-04 15:33 | 51.14371 | -0.22242 | 464 ft | 138 kts | 77° |
| 2026-05-04 15:34 | 51.14857 | -0.18766 | 210 ft | 44 kts | 73° |
| 2026-05-04 15:34 | 51.14960 | -0.18495 | 212 ft | 34 kts | 51° |
| 2026-05-04 15:34 | 51.15060 | -0.18288 | 204 ft | 0 kts | 51° |
| 2026-05-04 15:36 | 51.15063 | -0.18282 | 203 ft | 0 kts | 51° |
| 2026-05-04 15:39 | 51.15067 | -0.18275 | 203 ft | 3 kts | 51° |
| 2026-05-04 15:39 | 51.15109 | -0.18184 | 206 ft | 7 kts | 57° |
| 2026-05-04 15:40 | 51.15133 | -0.18106 | 212 ft | 9 kts | 66° |
| 2026-05-04 15:40 | 51.15190 | -0.18084 | 205 ft | 10 kts | 356° |
| 2026-05-04 15:40 | 51.15266 | -0.18101 | 204 ft | 13 kts | 345° |
| 2026-05-04 15:40 | 51.15360 | -0.18138 | 216 ft | 15 kts | 350° |
| 2026-05-04 15:41 | 51.15470 | -0.18176 | 204 ft | 17 kts | 345° |
| 2026-05-04 15:41 | 51.15592 | -0.18234 | 216 ft | 19 kts | 349° |
| 2026-05-04 15:41 | 51.15679 | -0.18130 | 211 ft | 18 kts | 73° |
| 2026-05-04 15:41 | 51.15703 | -0.17932 | 207 ft | 19 kts | 84° |
| 2026-05-04 15:42 | 51.15672 | -0.17808 | 217 ft | 12 kts | 137° |
| 2026-05-04 15:42 | 51.15652 | -0.17793 | 211 ft | 1 kts | 163° |
| 2026-05-04 15:42 | 51.15652 | -0.17792 | 211 ft | 0 kts | 163° |